Time;durP1;ratioP1;P1;durP2;ratioP2;P2;SDS_P1;SDS_P2;PMS_P1;PMS_P2;Temp;Humidity;BMP_temperature;BMP_pressure;BME280_temperature;BME280_humidity;BME280_pressure;Samples;Min_cycle;Max_cycle;Signal;HPM_P1;HPM_P2
2022/04/28 00:01:28;;;;;;;17.77;15.32;;;12.50;90.20;;;;;;5053557;28;20063;-61
2022/04/28 00:04:12;;;;;;;;;;;12.50;90.30;;;;;;5018132;28;20738;-62
2022/04/28 00:06:56;;;;;;;17.75;14.48;;;12.50;90.30;;;;;;5035761;28;19946;-60
2022/04/28 00:09:40;;;;;;;18.90;15.17;;;12.50;90.20;;;;;;5053245;28;20044;-63
2022/04/28 00:12:26;;;;;;;20.05;15.68;;;12.40;90.30;;;;;;5037739;28;20135;-61
2022/04/28 00:15:11;;;;;;;18.95;15.80;;;12.40;90.40;;;;;;5052746;28;20039;-62
2022/04/28 00:17:56;;;;;;;18.67;16.02;;;12.30;90.60;;;;;;5053067;28;20048;-61
2022/04/28 00:20:40;;;;;;;20.40;15.77;;;12.30;90.70;;;;;;5053091;28;20035;-62
2022/04/28 00:23:25;;;;;;;17.85;15.52;;;12.20;90.80;;;;;;5037801;28;20101;-61
2022/04/28 00:26:10;;;;;;;16.63;14.93;;;12.30;90.60;;;;;;5038912;28;20082;-62
2022/04/28 00:28:53;;;;;;;24.08;15.57;;;12.30;90.70;;;;;;5058966;28;20079;-61
2022/04/28 00:31:38;;;;;;;16.98;14.95;;;12.30;90.50;;;;;;5030043;28;20036;-61
2022/04/28 00:34:22;;;;;;;20.60;15.93;;;12.20;90.70;;;;;;5020361;28;20072;-61
2022/04/28 00:37:08;;;;;;;19.55;15.75;;;12.10;90.60;;;;;;5034365;28;20037;-61
2022/04/28 00:39:52;;;;;;;18.45;14.95;;;12.10;90.90;;;;;;5053305;28;20090;-61
2022/04/28 00:42:36;;;;;;;19.50;15.20;;;12.00;90.80;;;;;;5053490;28;20036;-61
2022/04/28 00:45:21;;;;;;;22.53;15.00;;;11.80;91.30;;;;;;5052104;28;20043;-61
2022/04/28 00:51:09;;;;;;;19.65;15.90;;;11.70;91.60;;;;;;5032553;28;20068;-61
2022/04/28 00:53:53;;;;;;;;;;;11.80;91.40;;;;;;5034840;28;20036;-62
2022/04/28 00:56:37;;;;;;;19.20;15.15;;;11.70;91.40;;;;;;5052312;28;20418;-62
2022/04/28 00:59:25;;;;;;;18.50;14.80;;;11.80;91.30;;;;;;5053098;28;20122;-61
2022/04/28 01:02:12;;;;;;;18.55;15.93;;;11.70;91.50;;;;;;5036878;28;20043;-61
2022/04/28 01:04:56;;;;;;;19.00;15.48;;;11.60;91.40;;;;;;5052042;28;20039;-61
2022/04/28 01:07:41;;;;;;;17.67;14.90;;;11.40;91.70;;;;;;5051835;28;20040;-62
2022/04/28 01:10:25;;;;;;;16.17;14.43;;;11.40;91.60;;;;;;5036909;28;20570;-61
2022/04/28 01:13:09;;;;;;;16.73;14.33;;;11.50;91.80;;;;;;5051794;28;20087;-62
2022/04/28 01:15:54;;;;;;;21.33;14.60;;;11.50;91.40;;;;;;5051649;28;20126;-61
2022/04/28 01:18:38;;;;;;;;;;;11.40;91.60;;;;;;5052486;28;20055;-62
2022/04/28 01:21:22;;;;;;;23.98;15.90;;;11.30;91.30;;;;;;5052537;28;20002;-62
2022/04/28 01:24:06;;;;;;;17.03;14.27;;;11.10;92.00;;;;;;5036418;28;20039;-61
2022/04/28 01:26:54;;;;;;;17.05;14.18;;;11.20;91.80;;;;;;5050746;28;20398;-62
2022/04/28 01:29:38;;;;;;;17.90;14.38;;;11.20;92.10;;;;;;5051947;28;20075;-62
2022/04/28 01:32:22;;;;;;;18.33;14.70;;;11.00;92.20;;;;;;5036283;28;20421;-60
2022/04/28 01:35:07;;;;;;;16.40;14.18;;;11.00;92.20;;;;;;5035718;28;20040;-60
2022/04/28 01:37:52;;;;;;;18.67;14.02;;;11.00;92.20;;;;;;5031814;28;20071;-62
2022/04/28 01:40:36;;;;;;;20.20;13.57;;;11.10;92.00;;;;;;5034842;28;20039;-60
2022/04/28 01:43:21;;;;;;;16.00;14.05;;;11.20;91.80;;;;;;5051282;28;20695;-62
2022/04/28 01:46:05;;;;;;;16.50;13.77;;;11.10;91.50;;;;;;5051040;28;20106;-61
2022/04/28 01:48:49;;;;;;;18.88;13.60;;;11.20;91.60;;;;;;5016670;28;20280;-61
2022/04/28 01:57:40;;;;;;;16.23;13.38;;;11.10;92.10;;;;;;5050949;28;20121;-60
2022/04/28 02:00:24;;;;;;;15.70;13.88;;;11.10;91.80;;;;;;5051332;28;20032;-62
2022/04/28 02:03:09;;;;;;;14.80;12.68;;;11.20;91.70;;;;;;5016209;28;20067;-62
2022/04/28 02:05:53;;;;;;;17.10;12.27;;;11.20;91.40;;;;;;5033731;28;20037;-62
2022/04/28 02:08:36;;;;;;;16.40;13.10;;;11.20;91.20;;;;;;5036943;28;20052;-62
2022/04/28 02:11:20;;;;;;;15.93;12.55;;;11.10;91.10;;;;;;5036971;28;20079;-63
2022/04/28 02:14:05;;;;;;;15.70;12.50;;;11.00;91.40;;;;;;5036045;28;20040;-61
2022/04/28 02:16:49;;;;;;;14.53;12.77;;;10.90;91.60;;;;;;5050246;28;20522;-61
2022/04/28 02:19:34;;;;;;;17.87;12.70;;;10.70;91.90;;;;;;5051131;28;20282;-63
2022/04/28 02:22:19;;;;;;;14.40;12.13;;;10.80;91.70;;;;;;5051362;28;20031;-62
2022/04/28 02:25:06;;;;;;;15.80;12.68;;;10.60;92.10;;;;;;5036142;28;20043;-61
2022/04/28 02:27:50;;;;;;;15.07;12.88;;;10.50;92.30;;;;;;5051562;28;20068;-60
2022/04/28 02:30:34;;;;;;;17.15;12.57;;;10.70;92.10;;;;;;5036873;28;20583;-62
2022/04/28 02:33:19;;;;;;;19.88;12.73;;;10.40;92.50;;;;;;5036524;28;20083;-63
2022/04/28 02:36:03;;;;;;;17.88;13.15;;;10.40;92.50;;;;;;5016426;28;20048;-61
2022/04/28 02:38:47;;;;;;;15.80;12.10;;;10.40;92.60;;;;;;5018586;28;20037;-62
2022/04/28 02:41:31;;;;;;;15.15;12.15;;;10.40;92.70;;;;;;5055826;28;20124;-60
2022/04/28 02:44:16;;;;;;;17.08;12.23;;;10.40;92.60;;;;;;5039842;28;20036;-62
2022/04/28 02:47:00;;;;;;;14.95;11.90;;;10.50;92.40;;;;;;5055461;28;20053;-63
2022/04/28 02:49:44;;;;;;;17.13;13.47;;;10.50;92.20;;;;;;5055559;28;20044;-61
2022/04/28 02:52:29;;;;;;;17.10;13.63;;;10.40;92.40;;;;;;5055240;28;20039;-61
2022/04/28 02:55:13;;;;;;;21.13;13.13;;;10.30;92.70;;;;;;5047150;28;20408;-60
2022/04/28 02:57:58;;;;;;;16.23;13.57;;;10.30;92.70;;;;;;5040076;28;20040;-61
2022/04/28 03:00:42;;;;;;;18.15;13.55;;;10.30;92.80;;;;;;5040768;28;20036;-62
2022/04/28 03:03:26;;;;;;;25.87;13.67;;;10.20;93.00;;;;;;5055739;28;20039;-61
2022/04/28 03:12:16;;;;;;;17.15;13.05;;;10.20;93.00;;;;;;5053998;28;20036;-62
2022/04/28 03:15:00;;;;;;;22.70;13.47;;;10.10;93.30;;;;;;5053964;28;20086;-61
2022/04/28 03:17:44;;;;;;;19.63;13.13;;;10.20;93.20;;;;;;5055771;28;20056;-62
2022/04/28 03:20:29;;;;;;;20.47;13.77;;;10.20;92.80;;;;;;5053648;28;20036;-61
2022/04/28 03:23:14;;;;;;;18.23;13.23;;;10.30;93.00;;;;;;5054226;28;20120;-61
2022/04/28 03:25:58;;;;;;;18.60;12.30;;;10.20;92.90;;;;;;5053885;28;20048;-62
2022/04/28 03:28:42;;;;;;;17.20;13.60;;;10.20;93.00;;;;;;5054877;28;20056;-61
2022/04/28 03:31:26;;;;;;;18.73;13.13;;;10.10;93.30;;;;;;5040300;28;20397;-62
2022/04/28 03:34:10;;;;;;;14.98;12.88;;;10.20;93.10;;;;;;5054487;28;20052;-62
2022/04/28 03:36:54;;;;;;;15.38;13.23;;;10.00;93.50;;;;;;5018141;28;20059;-59
2022/04/28 03:39:38;;;;;;;17.92;13.05;;;10.00;93.40;;;;;;5037039;28;20590;-62
2022/04/28 03:42:22;;;;;;;21.45;14.15;;;10.00;93.40;;;;;;5038684;28;20039;-63
2022/04/28 03:45:07;;;;;;;19.70;12.87;;;10.10;93.50;;;;;;5053151;28;20040;-61
2022/04/28 03:47:51;;;;;;;19.65;13.65;;;10.10;93.60;;;;;;5038736;28;20122;-62
2022/04/28 03:50:39;;;;;;;20.10;13.63;;;10.20;93.40;;;;;;5053784;28;20040;-61
2022/04/28 03:53:23;;;;;;;18.75;13.32;;;10.10;93.70;;;;;;5053117;28;20332;-60
2022/04/28 03:56:07;;;;;;;17.40;13.30;;;10.20;93.50;;;;;;5037742;28;20036;-61
2022/04/28 03:58:50;;;;;;;16.90;13.05;;;10.20;93.70;;;;;;5057221;28;20036;-62
2022/04/28 04:01:35;;;;;;;20.23;14.02;;;10.10;93.70;;;;;;5025919;28;20083;-64
2022/04/28 04:04:19;;;;;;;18.63;13.60;;;9.80;94.20;;;;;;5060007;28;20068;-61
2022/04/28 04:07:04;;;;;;;21.73;15.05;;;9.90;94.30;;;;;;5053778;28;20035;-62
2022/04/28 04:09:48;;;;;;;21.33;14.07;;;9.90;94.50;;;;;;5038826;28;20079;-60
2022/04/28 04:12:33;;;;;;;19.10;13.45;;;10.00;94.10;;;;;;5039416;28;20055;-61
2022/04/28 04:15:17;;;;;;;20.63;14.35;;;10.00;94.10;;;;;;5024772;28;20075;-61
2022/04/28 04:18:02;;;;;;;19.85;13.40;;;10.10;94.10;;;;;;5034744;28;20111;-63
2022/04/28 04:20:47;;;;;;;19.67;14.25;;;10.20;94.10;;;;;;5035134;28;20123;-62
2022/04/28 04:23:31;;;;;;;22.08;13.48;;;10.10;94.30;;;;;;5048331;28;20072;-61
2022/04/28 04:26:15;;;;;;;17.85;13.82;;;10.10;94.40;;;;;;5053387;28;20027;-62
2022/04/28 04:28:59;;;;;;;20.00;14.27;;;10.10;94.40;;;;;;5036587;28;20043;-63
2022/04/28 04:34:48;;;;;;;22.70;14.35;;;10.00;94.60;;;;;;5052839;28;20039;-61
2022/04/28 04:37:32;;;;;;;20.33;13.82;;;10.10;94.50;;;;;;5053020;28;20571;-61
2022/04/28 04:40:16;;;;;;;16.73;13.33;;;9.90;94.90;;;;;;5053451;28;20091;-60
2022/04/28 04:43:00;;;;;;;17.15;13.25;;;10.00;95.00;;;;;;5037373;28;20814;-62
2022/04/28 04:45:44;;;;;;;18.33;14.07;;;10.10;94.80;;;;;;5053169;28;20094;-62
2022/04/28 04:48:28;;;;;;;18.63;13.73;;;9.90;95.00;;;;;;5052185;28;20532;-62
2022/04/28 04:51:13;;;;;;;20.23;14.10;;;10.10;95.20;;;;;;5052836;28;20043;-62
2022/04/28 04:53:57;;;;;;;17.37;14.20;;;10.20;94.90;;;;;;5035489;28;20113;-61
2022/04/28 04:56:41;;;;;;;18.02;14.40;;;10.30;94.30;;;;;;5052144;28;20113;-62
2022/04/28 04:59:25;;;;;;;17.70;13.17;;;10.30;94.70;;;;;;5051682;28;20094;-62
2022/04/28 05:02:09;;;;;;;16.67;13.65;;;10.20;94.80;;;;;;5051594;28;20029;-61
2022/04/28 05:04:54;;;;;;;18.77;14.52;;;10.00;95.20;;;;;;5052120;28;20532;-61
2022/04/28 05:07:38;;;;;;;25.50;13.77;;;10.10;95.30;;;;;;5032340;28;20730;-61
2022/04/28 05:10:22;;;;;;;21.48;13.57;;;10.00;95.30;;;;;;5033187;28;20044;-62
2022/04/28 05:13:08;;;;;;;20.42;13.38;;;10.10;95.30;;;;;;5052159;28;20103;-62
2022/04/28 05:15:53;;;;;;;23.17;14.50;;;10.00;95.50;;;;;;5050831;28;20028;-61
2022/04/28 05:18:38;;;;;;;24.27;14.18;;;10.10;95.40;;;;;;5052862;28;20036;-62
2022/04/28 05:21:22;;;;;;;;;;;10.30;95.30;;;;;;5037062;28;20602;-61
2022/04/28 05:24:06;;;;;;;26.33;15.73;;;10.30;95.10;;;;;;5037055;28;20386;-63
2022/04/28 05:26:50;;;;;;;18.67;13.53;;;10.10;95.40;;;;;;5051529;28;20048;-63
2022/04/28 05:29:34;;;;;;;20.15;14.18;;;10.10;95.40;;;;;;5036467;28;20044;-61
2022/04/28 05:32:18;;;;;;;25.98;13.80;;;10.00;95.90;;;;;;5051833;28;20055;-62
2022/04/28 05:35:03;;;;;;;18.27;13.57;;;10.30;95.50;;;;;;5052230;28;20044;-63
2022/04/28 05:37:47;;;;;;;18.52;13.88;;;10.30;95.30;;;;;;5037432;28;20384;-61
2022/04/28 05:40:31;;;;;;;17.60;13.95;;;10.30;95.20;;;;;;5053172;28;20518;-61
2022/04/28 05:46:18;;;;;;;19.83;13.90;;;10.20;95.80;;;;;;5051247;28;20052;-61
2022/04/28 05:49:05;;;;;;;22.87;16.80;;;9.90;96.50;;;;;;5051920;28;20424;-62
2022/04/28 05:51:49;;;;;;;18.90;14.45;;;9.80;96.60;;;;;;5051656;28;20286;-63
2022/04/28 05:54:36;;;;;;;22.17;13.95;;;10.10;96.30;;;;;;5036733;28;20051;-61
2022/04/28 05:57:20;;;;;;;18.20;14.80;;;10.10;96.20;;;;;;5051368;28;20051;-62
2022/04/28 06:00:06;;;;;;;24.65;15.23;;;9.60;97.50;;;;;;5052084;28;20082;-61
2022/04/28 06:02:50;;;;;;;20.45;14.77;;;9.80;97.40;;;;;;5049318;28;20039;-63
2022/04/28 06:05:34;;;;;;;23.85;13.93;;;10.10;96.80;;;;;;5036194;28;20126;-64
2022/04/28 06:08:18;;;;;;;22.07;14.87;;;10.30;96.70;;;;;;5052198;28;20036;-63
2022/04/28 06:11:02;;;;;;;18.95;14.88;;;10.30;96.80;;;;;;5036766;28;20515;-62
2022/04/28 06:13:47;;;;;;;25.55;15.88;;;10.30;96.80;;;;;;5035739;28;20087;-62
2022/04/28 06:16:31;;;;;;;22.48;15.13;;;10.30;96.80;;;;;;5051810;28;20475;-62
2022/04/28 06:19:17;;;;;;;19.40;13.93;;;10.50;96.80;;;;;;5051615;28;20558;-63
2022/04/28 06:22:01;;;;;;;21.55;13.57;;;10.70;96.40;;;;;;5051115;28;20039;-60
2022/04/28 06:24:51;;;;;;;20.03;14.33;;;10.70;96.00;;;;;;5051850;28;20396;-60
2022/04/28 06:27:35;;;;;;;20.50;14.57;;;10.80;95.80;;;;;;5036379;28;20287;-63
2022/04/28 06:30:20;;;;;;;;;;;11.00;95.30;;;;;;5051320;28;20075;-62
2022/04/28 06:33:04;;;;;;;23.75;14.15;;;11.10;95.00;;;;;;5050892;28;20039;-63
2022/04/28 06:35:49;;;;;;;22.83;13.90;;;11.20;94.80;;;;;;5034812;28;20072;-62
2022/04/28 06:38:33;;;;;;;18.45;13.98;;;11.30;94.40;;;;;;5022061;28;20068;-62
2022/04/28 06:41:17;;;;;;;19.95;13.55;;;11.30;94.50;;;;;;5035902;28;20032;-64
2022/04/28 06:44:02;;;;;;;15.30;12.47;;;11.20;94.60;;;;;;5036545;28;20044;-62
2022/04/28 06:46:46;;;;;;;15.98;13.30;;;11.10;94.70;;;;;;5051078;28;20274;-62
2022/04/28 06:49:31;;;;;;;18.30;13.83;;;11.30;94.60;;;;;;5051363;28;20056;-62
2022/04/28 06:52:15;;;;;;;17.48;14.82;;;11.30;94.70;;;;;;5050377;28;20044;-63
2022/04/28 06:54:59;;;;;;;18.27;13.50;;;11.30;94.60;;;;;;5051524;28;20047;-62
2022/04/28 06:57:43;;;;;;;19.85;14.20;;;11.20;95.00;;;;;;5036075;28;20032;-64
2022/04/28 07:00:27;;;;;;;20.92;14.15;;;11.30;94.80;;;;;;5035589;28;20120;-63
2022/04/28 07:03:11;;;;;;;22.63;13.57;;;11.10;95.10;;;;;;5049445;28;20043;-61
2022/04/28 07:05:56;;;;;;;18.35;13.43;;;11.20;95.00;;;;;;5049146;28;20412;-62
2022/04/28 07:08:40;;;;;;;18.27;13.25;;;11.20;95.00;;;;;;5035004;28;20048;-62
2022/04/28 07:11:24;;;;;;;19.40;14.53;;;11.20;95.10;;;;;;5036187;28;20048;-62
2022/04/28 07:14:08;;;;;;;20.08;15.40;;;11.10;95.20;;;;;;5050354;28;20040;-63
2022/04/28 07:16:53;;;;;;;21.50;14.98;;;11.20;95.20;;;;;;5050989;28;20456;-60
2022/04/28 07:19:37;;;;;;;23.85;15.63;;;11.20;95.40;;;;;;5037151;28;20027;-61
2022/04/28 07:22:21;;;;;;;18.70;14.80;;;11.20;95.20;;;;;;5015230;28;20091;-59
2022/04/28 07:25:06;;;;;;;21.70;13.93;;;11.30;94.90;;;;;;5026855;28;20821;-57
2022/04/28 07:27:50;;;;;;;19.70;14.18;;;11.10;95.00;;;;;;5054567;28;20044;-55
2022/04/28 07:30:34;;;;;;;18.80;14.00;;;11.20;94.80;;;;;;5056673;28;20044;-60
2022/04/28 07:33:18;;;;;;;19.20;14.40;;;11.50;94.60;;;;;;5057187;28;20040;-59
2022/04/28 07:36:02;;;;;;;19.67;14.10;;;11.30;95.30;;;;;;5028099;28;20055;-60
2022/04/28 07:38:46;;;;;;;21.90;15.70;;;11.50;94.70;;;;;;5044877;28;20159;-59
2022/04/28 07:41:30;;;;;;;20.75;14.95;;;11.40;95.10;;;;;;5038881;28;20086;-58
2022/04/28 07:44:14;;;;;;;17.93;14.33;;;11.50;94.80;;;;;;5054479;28;20120;-59
2022/04/28 07:46:58;;;;;;;18.98;13.27;;;11.70;94.60;;;;;;5054060;28;20325;-60
2022/04/28 07:49:42;;;;;;;21.27;14.20;;;11.80;94.20;;;;;;5054634;28;20546;-60
2022/04/28 07:52:26;;;;;;;20.10;13.60;;;11.90;94.10;;;;;;5054239;28;20036;-60
2022/04/28 07:55:10;;;;;;;18.43;14.27;;;12.00;94.10;;;;;;5040222;28;20032;-62
2022/04/28 07:57:55;;;;;;;21.08;14.27;;;12.00;93.50;;;;;;5053948;28;20103;-59
2022/04/28 08:00:39;;;;;;;23.60;14.93;;;12.10;93.50;;;;;;5038787;28;20121;-60
2022/04/28 08:03:23;;;;;;;20.80;14.82;;;12.20;93.30;;;;;;5018649;28;20458;-61
2022/04/28 08:06:08;;;;;;;20.90;14.03;;;12.40;93.50;;;;;;5007614;28;20039;-61
2022/04/28 08:08:52;;;;;;;18.48;14.02;;;12.40;93.30;;;;;;5030697;28;20068;-62
2022/04/28 08:11:39;;;;;;;17.97;14.53;;;12.50;93.20;;;;;;5048374;28;20029;-61
2022/04/28 08:14:24;;;;;;;24.60;14.25;;;12.50;93.30;;;;;;5040456;28;20089;-60
2022/04/28 08:17:08;;;;;;;;;;;12.80;93.10;;;;;;5041234;28;20048;-60
2022/04/28 08:19:53;;;;;;;18.42;13.73;;;13.00;92.50;;;;;;5039011;28;19919;-63
2022/04/28 08:22:37;;;;;;;18.73;14.37;;;13.10;92.50;;;;;;5035219;28;20032;-61
2022/04/28 08:25:21;;;;;;;20.30;14.63;;;12.90;92.60;;;;;;5045703;28;20040;-60
2022/04/28 08:28:06;;;;;;;22.02;14.73;;;13.00;92.40;;;;;;5025938;28;20515;-60
2022/04/28 08:30:51;;;;;;;22.83;15.05;;;13.10;92.40;;;;;;5055313;28;20377;-60
2022/04/28 08:33:36;;;;;;;18.02;13.90;;;13.30;92.20;;;;;;5053073;28;20051;-60
2022/04/28 08:36:20;;;;;;;15.93;14.10;;;13.50;91.60;;;;;;5035709;28;20408;-57
2022/04/28 08:39:04;;;;;;;20.08;14.35;;;13.60;91.40;;;;;;5030485;28;20043;-60
2022/04/28 08:41:49;;;;;;;25.23;15.27;;;13.60;91.40;;;;;;5051458;28;20036;-59
2022/04/28 08:44:35;;;;;;;22.10;14.50;;;13.70;91.30;;;;;;5037840;28;20036;-59
2022/04/28 08:47:19;;;;;;;20.17;13.55;;;13.70;90.60;;;;;;5051688;28;20040;-63
2022/04/28 08:50:05;;;;;;;24.43;14.60;;;13.50;90.80;;;;;;5052386;28;20460;-60
2022/04/28 08:52:50;;;;;;;18.05;14.55;;;13.70;90.70;;;;;;5039603;28;20314;-58
2022/04/28 08:55:35;;;;;;;16.92;13.98;;;13.90;90.20;;;;;;5052224;28;20039;-60
2022/04/28 08:58:19;;;;;;;23.20;14.17;;;14.10;90.10;;;;;;5052795;28;20106;-61
2022/04/28 09:01:03;;;;;;;17.65;14.10;;;14.30;89.50;;;;;;5045898;28;20059;-60
2022/04/28 09:03:48;;;;;;;19.63;14.83;;;14.20;87.90;;;;;;5056555;28;20546;-61
2022/04/28 09:06:34;;;;;;;22.10;14.47;;;14.30;88.00;;;;;;5037198;28;20090;-60
2022/04/28 09:09:20;;;;;;;18.50;15.02;;;14.30;87.40;;;;;;5036481;28;20286;-60
2022/04/28 09:12:06;;;;;;;21.80;14.10;;;14.30;87.10;;;;;;5036137;28;20060;-60
2022/04/28 09:14:51;;;;;;;18.17;13.88;;;14.30;86.90;;;;;;5022187;28;20031;-59
2022/04/28 09:17:40;;;;;;;16.95;14.32;;;14.30;87.00;;;;;;5050953;28;20040;-59
2022/04/28 09:20:24;;;;;;;17.88;14.15;;;14.60;85.70;;;;;;5033104;28;20058;-61
2022/04/28 09:23:10;;;;;;;18.98;14.25;;;14.60;85.60;;;;;;5051390;28;20063;-59
2022/04/28 09:25:56;;;;;;;20.23;15.13;;;14.80;84.90;;;;;;5051078;28;20047;-62
2022/04/28 09:28:40;;;;;;;22.77;15.18;;;14.80;85.40;;;;;;5028910;28;20123;-61
2022/04/28 09:31:25;;;;;;;19.10;14.68;;;14.90;83.70;;;;;;5045438;28;20039;-59
2022/04/28 09:34:15;;;;;;;19.38;14.60;;;14.90;84.10;;;;;;5036175;28;20044;-60
2022/04/28 09:36:59;;;;;;;22.25;14.82;;;15.00;82.80;;;;;;5051063;28;20071;-61
2022/04/28 09:42:47;;;;;;;22.77;14.63;;;14.90;81.50;;;;;;5038634;28;20041;-61
2022/04/28 09:45:31;;;;;;;16.33;14.10;;;15.00;80.70;;;;;;5051023;28;20044;-61
2022/04/28 09:48:17;;;;;;;23.33;15.40;;;15.00;79.90;;;;;;5050811;28;20179;-61
2022/04/28 09:51:04;;;;;;;18.65;14.50;;;14.90;79.80;;;;;;5034706;28;20282;-62
2022/04/28 09:53:49;;;;;;;19.75;14.40;;;15.00;80.20;;;;;;5044294;28;20043;-61
2022/04/28 09:56:35;;;;;;;16.92;14.80;;;15.10;79.20;;;;;;5054443;28;20082;-62
2022/04/28 09:59:20;;;;;;;18.17;15.90;;;14.90;79.90;;;;;;5035887;28;20036;-62
2022/04/28 10:02:04;;;;;;;;;;;14.70;80.60;;;;;;5038187;28;20094;-61
2022/04/28 10:04:50;;;;;;;19.93;14.80;;;14.80;80.50;;;;;;5039760;28;19931;-60
2022/04/28 10:07:36;;;;;;;21.10;15.43;;;15.00;80.50;;;;;;5051585;28;20032;-63
2022/04/28 10:10:21;;;;;;;17.75;14.73;;;15.30;79.50;;;;;;5036971;28;20835;-61
2022/04/28 10:13:05;;;;;;;16.85;14.30;;;15.20;80.10;;;;;;5036262;28;20040;-61
2022/04/28 10:15:55;;;;;;;20.23;15.18;;;15.60;79.60;;;;;;5021732;28;20040;-61
2022/04/28 10:18:44;;;;;;;19.00;14.95;;;15.40;79.60;;;;;;5050513;28;20079;-60
2022/04/28 10:21:33;;;;;;;22.30;15.23;;;15.70;79.00;;;;;;5016613;28;20440;-59
2022/04/28 10:33:41;;;;;;;18.60;15.55;;;16.20;77.70;;;;;;5038126;28;20471;-63
2022/04/28 10:36:25;;;;;;;19.60;14.95;;;16.20;77.30;;;;;;5049632;28;20125;-61
2022/04/28 10:39:10;;;;;;;17.80;13.98;;;16.10;77.10;;;;;;5051429;28;20040;-62
2022/04/28 10:41:54;;;;;;;20.13;13.77;;;16.20;77.60;;;;;;5050817;28;20044;-60
2022/04/28 10:44:42;;;;;;;19.02;14.85;;;16.40;77.80;;;;;;5022089;28;20779;-60
2022/04/28 10:47:45;;;;;;;15.02;13.38;;;16.40;76.40;;;;;;5050451;28;20809;-60
2022/04/28 10:50:32;;;;;;;19.70;14.70;;;16.40;76.80;;;;;;5050750;28;20047;-63
2022/04/28 10:53:20;;;;;;;21.30;15.38;;;16.40;76.70;;;;;;5025851;28;20106;-62
2022/04/28 10:56:09;;;;;;;24.17;16.02;;;16.10;77.80;;;;;;5035911;28;20536;-64
2022/04/28 10:59:21;;;;;;;18.75;15.68;;;16.10;77.90;;;;;;5036177;28;20052;-61
2022/04/28 11:02:11;;;;;;;19.27;14.70;;;16.10;77.90;;;;;;5054991;28;20044;-62
2022/04/28 11:05:03;;;;;;;20.88;16.38;;;16.10;78.80;;;;;;5054738;28;20036;-62
2022/04/28 11:07:47;;;;;;;20.02;15.40;;;16.20;77.50;;;;;;5054336;28;20067;-62
2022/04/28 11:10:31;;;;;;;20.03;15.27;;;16.40;76.70;;;;;;5054451;28;20083;-62
2022/04/28 11:13:20;;;;;;;20.95;15.93;;;16.40;77.20;;;;;;5050107;28;20397;-63
2022/04/28 11:16:04;;;;;;;18.98;16.48;;;16.60;76.20;;;;;;5034147;28;20123;-62
2022/04/28 11:18:49;;;;;;;21.98;16.23;;;16.50;76.30;;;;;;5034587;28;20125;-61
2022/04/28 11:21:33;;;;;;;18.50;16.27;;;16.40;76.70;;;;;;5038697;28;20082;-61
2022/04/28 11:24:18;;;;;;;;;;;16.40;76.80;;;;;;5032903;28;20503;-63
2022/04/28 11:27:02;;;;;;;21.40;16.98;;;16.40;76.70;;;;;;5053048;28;19962;-63
2022/04/28 11:29:50;;;;;;;20.23;16.52;;;16.30;77.00;;;;;;5038626;28;20067;-62
2022/04/28 11:32:35;;;;;;;18.40;16.40;;;16.40;76.10;;;;;;5040819;28;20044;-63
2022/04/28 11:35:22;;;;;;;23.27;16.80;;;16.60;76.70;;;;;;5035263;28;20043;-62
2022/04/28 11:38:08;;;;;;;23.88;16.42;;;16.80;75.50;;;;;;5032944;28;20401;-64
2022/04/28 11:41:00;;;;;;;23.20;17.77;;;16.90;75.90;;;;;;5051529;28;20032;-64
2022/04/28 11:43:47;;;;;;;24.58;17.10;;;16.70;75.20;;;;;;5053968;28;20405;-63
2022/04/28 11:46:33;;;;;;;18.13;16.25;;;16.50;76.30;;;;;;5039728;28;20459;-63
2022/04/28 11:49:19;;;;;;;23.27;17.45;;;16.50;76.50;;;;;;5041219;28;20539;-62
2022/04/28 11:52:20;;;;;;;23.10;17.63;;;16.60;76.40;;;;;;5039993;28;20066;-63
2022/04/28 11:55:08;;;;;;;19.67;15.98;;;16.50;76.10;;;;;;5022671;28;20148;-65
2022/04/28 11:57:54;;;;;;;21.42;16.88;;;16.60;77.20;;;;;;5057977;28;20472;-61
2022/04/28 12:00:45;;;;;;;21.55;16.95;;;16.90;74.00;;;;;;5046098;28;20100;-64
2022/04/28 12:03:30;;;;;;;21.45;16.33;;;17.00;74.70;;;;;;5046822;28;20029;-62
2022/04/28 12:06:16;;;;;;;23.05;16.52;;;17.00;74.40;;;;;;5041051;28;20033;-63
2022/04/28 12:15:24;;;;;;;22.42;15.45;;;17.60;73.40;;;;;;5046773;28;20048;-64
2022/04/28 12:21:21;;;;;;;19.85;15.88;;;17.10;73.30;;;;;;5046137;28;20115;-63
2022/04/28 12:24:28;;;;;;;18.75;14.95;;;17.30;73.20;;;;;;5056942;28;20523;-65
2022/04/28 12:27:12;;;;;;;18.55;15.88;;;17.50;71.90;;;;;;5050673;28;20047;-63
2022/04/28 12:29:58;;;;;;;18.10;15.75;;;17.80;71.90;;;;;;5026019;28;20032;-64
2022/04/28 12:32:56;;;;;;;21.75;15.43;;;18.20;71.10;;;;;;5040265;28;20067;-63
2022/04/28 12:35:42;;;;;;;23.17;15.73;;;18.30;69.80;;;;;;5053051;28;20036;-64
2022/04/28 12:38:27;;;;;;;17.45;14.73;;;18.00;71.40;;;;;;5054387;28;20035;-64
2022/04/28 12:41:22;;;;;;;19.70;16.25;;;18.00;70.90;;;;;;5037947;28;20528;-60
2022/04/28 12:44:06;;;;;;;20.80;15.77;;;18.10;70.70;;;;;;5037184;28;20063;-63
2022/04/28 12:46:55;;;;;;;18.60;16.23;;;18.30;71.20;;;;;;5051763;28;20036;-60
2022/04/28 12:49:44;;;;;;;19.40;16.23;;;18.20;70.20;;;;;;5051887;28;20429;-60
2022/04/28 12:52:37;;;;;;;22.55;16.90;;;18.40;70.60;;;;;;5023062;28;20514;-61
2022/04/28 12:55:22;;;;;;;19.27;16.30;;;18.60;69.60;;;;;;5033373;28;20043;-62
2022/04/28 12:58:08;;;;;;;19.58;16.05;;;18.70;69.30;;;;;;5047666;28;20079;-59
2022/04/28 13:00:52;;;;;;;22.65;17.55;;;18.50;69.90;;;;;;5052054;28;20114;-61
2022/04/28 13:03:37;;;;;;;17.35;15.55;;;18.30;70.40;;;;;;5052352;28;20508;-63
2022/04/28 13:06:24;;;;;;;29.33;18.30;;;18.20;70.40;;;;;;5053204;28;20090;-59
2022/04/28 13:09:09;;;;;;;20.42;16.05;;;18.20;70.60;;;;;;5033336;28;20099;-63
2022/04/28 13:11:53;;;;;;;18.65;16.05;;;18.50;69.90;;;;;;5044837;28;20071;-61
2022/04/28 13:14:37;;;;;;;22.20;15.15;;;18.80;69.20;;;;;;5037898;28;20028;-62
2022/04/28 13:17:21;;;;;;;21.55;14.82;;;18.90;67.60;;;;;;5052756;28;20610;-64
2022/04/28 13:20:06;;;;;;;17.90;14.75;;;19.10;67.00;;;;;;5052694;28;20039;-62
2022/04/28 13:22:50;;;;;;;;;;;19.40;66.60;;;;;;5051933;28;20404;-62
2022/04/28 13:25:34;;;;;;;21.45;15.00;;;19.40;67.60;;;;;;5020671;28;19919;-64
2022/04/28 13:28:18;;;;;;;16.98;15.07;;;19.40;67.40;;;;;;5055293;28;20558;-66
2022/04/28 13:31:03;;;;;;;;;;;19.50;66.80;;;;;;5044883;28;20094;-64
2022/04/28 13:33:49;;;;;;;22.67;14.77;;;19.60;66.20;;;;;;5055934;28;20406;-66
2022/04/28 13:36:33;;;;;;;16.48;14.57;;;19.80;65.70;;;;;;5053125;28;20047;-63
2022/04/28 13:39:18;;;;;;;18.98;14.00;;;20.00;65.70;;;;;;5036889;28;20052;-62
2022/04/28 13:42:02;;;;;;;15.70;14.10;;;20.10;65.80;;;;;;5037358;28;20087;-63
2022/04/28 13:44:47;;;;;;;;;;;20.30;65.00;;;;;;5052846;28;20507;-63
2022/04/28 13:47:31;;;;;;;20.00;14.93;;;20.40;64.30;;;;;;5053680;28;19919;-66
2022/04/28 13:50:15;;;;;;;17.63;14.40;;;20.00;63.90;;;;;;5051450;28;20087;-66
2022/04/28 13:52:59;;;;;;;16.88;15.07;;;19.70;64.60;;;;;;5051926;28;20040;-65
2022/04/28 13:55:46;;;;;;;22.75;14.32;;;19.80;65.20;;;;;;5051840;28;20040;-63
2022/04/28 13:58:31;;;;;;;15.90;14.13;;;20.30;65.40;;;;;;5052162;28;20071;-63
2022/04/28 14:01:16;;;;;;;18.52;14.45;;;20.90;63.30;;;;;;5034379;28;20051;-64
2022/04/28 14:04:03;;;;;;;18.80;15.32;;;20.90;63.70;;;;;;5052651;28;20032;-63
2022/04/28 14:06:47;;;;;;;18.80;15.68;;;20.50;63.50;;;;;;5052738;28;20036;-64
2022/04/28 14:09:31;;;;;;;17.33;14.57;;;20.20;64.10;;;;;;5038450;28;20114;-63
2022/04/28 14:12:15;;;;;;;15.57;13.70;;;20.80;64.20;;;;;;5037801;28;20051;-64
2022/04/28 14:15:00;;;;;;;18.25;13.70;;;21.30;63.20;;;;;;5052106;28;20377;-62
2022/04/28 14:17:46;;;;;;;17.50;13.85;;;21.40;62.20;;;;;;5035588;28;20106;-63
2022/04/28 14:20:30;;;;;;;18.33;14.38;;;21.30;62.20;;;;;;5036571;28;20093;-64
2022/04/28 14:23:17;;;;;;;16.73;14.48;;;21.20;62.20;;;;;;5050399;28;20036;-64
2022/04/28 14:26:02;;;;;;;14.73;13.32;;;20.90;62.70;;;;;;5037045;28;20120;-64
2022/04/28 14:28:46;;;;;;;20.75;13.65;;;20.80;62.80;;;;;;5050198;28;20070;-64
2022/04/28 14:31:31;;;;;;;18.77;13.85;;;20.60;62.90;;;;;;5034253;28;20048;-65
2022/04/28 14:34:19;;;;;;;15.80;12.45;;;20.40;63.20;;;;;;5035583;28;20043;-64
2022/04/28 14:37:06;;;;;;;15.82;12.90;;;20.20;64.00;;;;;;5053758;28;20044;-66
2022/04/28 14:39:50;;;;;;;14.13;12.35;;;20.80;62.60;;;;;;5055199;28;20036;-63
2022/04/28 14:42:37;;;;;;;15.27;13.60;;;20.80;62.30;;;;;;5040340;28;20040;-62
2022/04/28 14:45:21;;;;;;;16.38;12.70;;;20.90;62.00;;;;;;5039007;28;20040;-62